createdAt,value
2018-08-18T00:00:54.115Z,255.60
2018-08-18T00:03:24.770Z,262.08
2018-08-18T00:05:55.486Z,250.50
2018-08-18T00:08:26.000Z,244.82
2018-08-18T00:10:56.334Z,250.80
2018-08-18T00:13:26.598Z,235.23
2018-08-18T00:15:56.966Z,253.20
2018-08-18T00:18:27.347Z,250.68
2018-08-18T00:20:57.663Z,257.35
2018-08-18T00:23:28.336Z,255.90
2018-08-18T00:25:58.798Z,254.72
2018-08-18T00:28:29.167Z,254.43
2018-08-18T00:30:59.588Z,260.52
2018-08-18T00:33:30.329Z,256.43
2018-08-18T00:36:00.614Z,252.65
2018-08-18T00:38:30.981Z,262.20
2018-08-18T00:41:01.701Z,274.20
2018-08-18T00:43:32.400Z,270.40
2018-08-18T00:46:02.961Z,267.00
2018-08-18T00:48:33.456Z,264.30
2018-08-18T00:51:03.944Z,240.70
2018-08-18T00:53:34.351Z,253.83
2018-08-18T00:56:06.257Z,244.70
2018-08-18T00:58:36.463Z,241.05
2018-08-18T01:01:07.026Z,248.15
2018-08-18T01:03:43.242Z,265.90
2018-08-18T01:06:19.387Z,247.40
2018-08-18T01:08:53.963Z,236.62
2018-08-18T01:11:25.398Z,243.70
2018-08-18T01:13:56.580Z,247.02
2018-08-18T01:16:27.117Z,259.70
2018-08-18T01:18:57.703Z,258.27
2018-08-18T01:21:28.076Z,246.07
2018-08-18T01:23:58.519Z,262.57
2018-08-18T01:26:28.904Z,252.78
2018-08-18T01:29:08.742Z,257.52
2018-08-18T01:31:39.029Z,257.90
2018-08-18T01:34:09.705Z,248.22
2018-08-18T01:36:40.162Z,253.75
2018-08-18T01:39:12.394Z,250.38
2018-08-18T01:41:42.786Z,255.47
2018-08-18T01:44:15.181Z,248.82
2018-08-18T01:46:47.610Z,236.05
2018-08-18T01:49:32.113Z,242.47
2018-08-18T01:52:05.951Z,239.27
2018-08-18T01:54:36.197Z,254.15
2018-08-18T01:57:09.719Z,258.32
2018-08-18T01:59:41.262Z,250.70
2018-08-18T02:02:16.069Z,248.97
2018-08-18T02:04:46.873Z,236.30
2018-08-18T02:07:29.235Z,235.90
2018-08-18T02:09:59.671Z,238.47
2018-08-18T02:12:30.735Z,242.28
2018-08-18T02:15:01.844Z,243.20
2018-08-18T02:17:39.659Z,238.90
2018-08-18T02:20:10.723Z,237.20
2018-08-18T02:22:41.046Z,243.70
2018-08-18T02:25:11.489Z,250.93
2018-08-18T02:27:42.223Z,244.75
2018-08-18T02:30:21.575Z,242.35
2018-08-18T02:32:52.169Z,251.85
2018-08-18T02:35:23.813Z,239.27
2018-08-18T02:37:54.438Z,237.05
2018-08-18T02:40:26.287Z,246.00
2018-08-18T02:42:56.734Z,247.78
2018-08-18T02:45:27.340Z,240.45
2018-08-18T02:48:11.774Z,237.45
2018-08-18T02:50:53.995Z,245.88
2018-08-18T02:53:27.733Z,242.37
2018-08-18T02:55:58.092Z,237.88
2018-08-18T02:58:28.502Z,256.93
2018-08-18T03:00:59.049Z,284.07
2018-08-18T03:03:29.438Z,264.42
2018-08-18T03:06:07.590Z,260.48
2018-08-18T03:08:38.026Z,251.00
2018-08-18T03:11:08.541Z,244.82
2018-08-18T03:13:38.887Z,230.50
2018-08-18T03:16:11.185Z,228.02
2018-08-18T03:18:49.357Z,236.80
2018-08-18T03:21:21.206Z,237.15
2018-08-18T03:24:02.467Z,235.10
2018-08-18T03:26:37.874Z,239.00
2018-08-18T03:29:08.436Z,231.30
2018-08-18T03:31:39.382Z,239.68
2018-08-18T03:34:10.666Z,232.35
2018-08-18T03:36:45.926Z,239.05
2018-08-18T03:39:23.743Z,223.68
2018-08-18T03:41:55.522Z,232.25
2018-08-18T03:44:25.803Z,223.22
2018-08-18T03:46:56.361Z,231.35
2018-08-18T03:49:26.719Z,235.10
2018-08-18T03:51:57.171Z,240.28
2018-08-18T03:54:27.478Z,236.25
2018-08-18T03:56:58.128Z,234.57
2018-08-18T03:59:28.513Z,229.23
2018-08-18T04:02:00.729Z,250.80
2018-08-18T04:04:32.683Z,255.27
2018-08-18T04:07:03.768Z,243.10
2018-08-18T04:09:35.704Z,234.10
2018-08-18T04:12:08.134Z,241.90
2018-08-18T04:14:40.532Z,237.53
2018-08-18T04:17:21.566Z,233.87
2018-08-18T04:19:52.043Z,227.15
2018-08-18T04:22:24.345Z,236.28
2018-08-18T04:24:56.401Z,233.38
2018-08-18T04:27:43.541Z,244.93
2018-08-18T04:30:20.601Z,238.77
2018-08-18T04:33:00.574Z,228.50
2018-08-18T04:35:32.231Z,238.82
2018-08-18T04:38:04.706Z,228.95
2018-08-18T04:40:37.308Z,238.85
2018-08-18T04:43:08.434Z,240.32
2018-08-18T04:45:39.062Z,243.78
2018-08-18T04:48:09.902Z,243.37
2018-08-18T04:50:40.285Z,245.22
2018-08-18T04:53:12.115Z,244.18
2018-08-18T04:55:42.549Z,240.90
2018-08-18T04:58:13.897Z,244.18
2018-08-18T05:00:44.194Z,243.93
2018-08-18T05:03:15.436Z,233.45
2018-08-18T05:05:46.464Z,228.10
2018-08-18T05:08:16.853Z,241.12
2018-08-18T05:10:47.262Z,244.10
2018-08-18T05:13:17.582Z,230.10
2018-08-18T05:15:48.245Z,238.57
2018-08-18T05:18:18.590Z,242.07
2018-08-18T05:20:50.649Z,230.00
2018-08-18T05:23:24.936Z,235.48
2018-08-18T05:25:55.209Z,249.10
2018-08-18T05:28:25.550Z,248.85
2018-08-18T05:30:56.142Z,234.50
2018-08-18T05:33:26.660Z,243.48
2018-08-18T05:35:57.181Z,231.60
2018-08-18T05:38:27.462Z,233.63
2018-08-18T05:40:57.927Z,230.05
2018-08-18T05:43:28.325Z,232.87
2018-08-18T05:45:58.836Z,239.25
2018-08-18T05:48:29.334Z,231.10
2018-08-18T05:50:59.958Z,236.18
2018-08-18T05:53:31.458Z,245.73
2018-08-18T05:56:02.561Z,295.48
2018-08-18T05:58:48.763Z,237.12
2018-08-18T06:01:26.290Z,226.85
2018-08-18T06:04:04.592Z,243.85
2018-08-18T06:06:35.107Z,245.20
2018-08-18T06:09:07.230Z,238.90
2018-08-18T06:11:37.790Z,243.17
2018-08-18T06:14:08.386Z,250.03
2018-08-18T06:16:38.812Z,244.85
2018-08-18T06:19:09.664Z,254.40
2018-08-18T06:21:40.380Z,234.47
2018-08-18T06:24:11.076Z,247.80
2018-08-18T06:26:41.380Z,239.80
2018-08-18T06:29:11.677Z,236.30
2018-08-18T06:31:57.643Z,237.65
2018-08-18T06:34:30.314Z,238.12
2018-08-18T06:37:01.062Z,248.95
2018-08-18T06:39:46.024Z,235.10
2018-08-18T06:42:42.761Z,241.17
2018-08-18T06:45:16.332Z,240.82
2018-08-18T06:47:47.919Z,235.78
2018-08-18T06:50:19.252Z,236.07
2018-08-18T06:53:01.209Z,241.65
2018-08-18T06:55:32.776Z,239.23
2018-08-18T06:58:03.782Z,245.12
2018-08-18T07:00:34.076Z,259.83
2018-08-18T07:03:09.972Z,267.05
2018-08-18T07:05:40.247Z,256.17
2018-08-18T07:08:11.918Z,240.32
2018-08-18T07:10:42.212Z,250.43
2018-08-18T07:13:12.859Z,245.80
2018-08-18T07:15:44.512Z,237.00
2018-08-18T07:18:16.092Z,236.80
2018-08-18T07:20:46.220Z,240.37
2018-08-18T07:23:16.720Z,236.35
2018-08-18T07:25:52.010Z,239.10
2018-08-18T07:28:24.637Z,241.60
2018-08-18T07:30:55.385Z,235.23
2018-08-18T07:33:25.813Z,232.92
2018-08-18T07:35:57.059Z,234.62
2018-08-18T07:38:27.897Z,229.43
2018-08-18T07:40:58.484Z,245.05
2018-08-18T07:43:33.480Z,241.15
2018-08-18T07:46:08.315Z,240.77
2018-08-18T07:48:40.019Z,240.43
2018-08-18T07:51:10.176Z,239.57
2018-08-18T07:53:41.483Z,241.63
2018-08-18T07:56:12.432Z,235.90
2018-08-18T07:58:42.790Z,240.12
2018-08-18T08:01:14.790Z,235.13
2018-08-18T08:03:45.307Z,266.70
2018-08-18T08:06:18.516Z,250.07
2018-08-18T08:08:48.988Z,254.95
2018-08-18T08:11:19.384Z,232.27
2018-08-18T08:13:49.780Z,250.70
2018-08-18T08:16:22.063Z,245.20
2018-08-18T08:18:52.516Z,246.68
2018-08-18T08:21:23.325Z,262.12
2018-08-18T08:23:54.657Z,249.55
2018-08-18T08:26:25.890Z,254.87
2018-08-18T08:28:56.192Z,253.90
2018-08-18T08:31:26.552Z,251.15
2018-08-18T08:34:00.289Z,244.40
2018-08-18T08:36:34.689Z,245.12
2018-08-18T08:39:06.361Z,242.13
2018-08-18T08:41:36.659Z,243.70
2018-08-18T08:44:06.969Z,253.25
2018-08-18T08:46:49.780Z,258.40
2018-08-18T08:49:27.465Z,259.80
2018-08-18T08:52:08.314Z,255.87
2018-08-18T08:54:48.379Z,255.72
2018-08-18T08:57:25.988Z,271.32
2018-08-18T09:00:03.556Z,256.93
2018-08-18T09:02:48.625Z,265.35
2018-08-18T09:05:33.228Z,272.67
2018-08-18T09:08:13.451Z,270.50
2018-08-18T09:10:50.940Z,287.27
2018-08-18T09:13:37.196Z,275.38
2018-08-18T09:16:15.989Z,269.50
2018-08-18T09:18:53.025Z,270.02
2018-08-18T09:21:23.504Z,262.52
2018-08-18T09:23:58.995Z,261.20
2018-08-18T09:26:31.769Z,279.90
2018-08-18T09:29:03.651Z,274.73
2018-08-18T09:31:34.803Z,279.25
2018-08-18T09:34:05.173Z,287.23
2018-08-18T09:36:35.593Z,275.75
2018-08-18T09:39:08.884Z,265.32
2018-08-18T09:41:39.657Z,263.20
2018-08-18T09:44:21.382Z,274.37
2018-08-18T09:46:52.233Z,261.00
2018-08-18T09:49:22.604Z,285.48
2018-08-18T09:51:53.160Z,296.48
2018-08-18T09:54:23.533Z,277.25
2018-08-18T09:56:55.994Z,275.93
2018-08-18T09:59:26.871Z,290.92
2018-08-18T10:01:57.678Z,296.30
2018-08-18T10:04:28.106Z,290.05
2018-08-18T10:06:58.474Z,281.57
2018-08-18T10:09:29.580Z,287.38
2018-08-18T10:12:00.137Z,284.80
2018-08-18T10:14:31.647Z,305.45
2018-08-18T10:17:02.954Z,314.00
2018-08-18T10:19:33.883Z,288.55
2018-08-18T10:22:07.137Z,303.20
2018-08-18T10:24:38.029Z,299.62
2018-08-18T10:27:08.510Z,316.80
2018-08-18T10:29:39.129Z,313.98
2018-08-18T10:32:09.273Z,318.95
2018-08-18T10:34:39.656Z,339.65
2018-08-18T10:37:09.920Z,317.13
2018-08-18T10:39:40.156Z,332.20
2018-08-18T10:42:13.852Z,324.62
2018-08-18T10:44:50.525Z,319.75
2018-08-18T10:47:22.791Z,322.85
2018-08-18T10:50:04.149Z,324.75
2018-08-18T10:52:45.975Z,341.20
2018-08-18T10:55:18.636Z,304.30
2018-08-18T10:58:00.841Z,308.15
2018-08-18T11:00:32.861Z,337.52
2018-08-18T11:03:07.236Z,293.97
2018-08-18T11:05:38.716Z,303.55
2018-08-18T11:08:11.846Z,308.17
2018-08-18T11:10:43.117Z,338.50
2018-08-18T11:13:13.406Z,303.67
2018-08-18T11:15:44.864Z,275.15
2018-08-18T11:18:15.224Z,283.80
2018-08-18T11:20:45.533Z,292.57
2018-08-18T11:23:16.421Z,287.20
2018-08-18T11:25:56.970Z,297.82
2018-08-18T11:28:27.797Z,300.32
2018-08-18T11:30:58.037Z,314.17
2018-08-18T11:33:38.455Z,305.35
2018-08-18T11:36:10.044Z,325.95
2018-08-18T11:38:40.748Z,327.60
2018-08-18T11:41:11.029Z,297.37
2018-08-18T11:43:47.752Z,326.30
2018-08-18T11:46:17.956Z,314.25
2018-08-18T11:48:48.659Z,315.23
2018-08-18T11:51:18.831Z,325.35
2018-08-18T11:53:58.918Z,325.93
2018-08-18T11:56:29.275Z,366.80
2018-08-18T11:59:14.828Z,328.25
2018-08-18T12:01:49.251Z,316.95
2018-08-18T12:04:20.843Z,282.62
2018-08-18T12:06:56.214Z,314.40
2018-08-18T12:09:26.712Z,307.92
2018-08-18T12:11:57.037Z,335.23
2018-08-18T12:14:27.464Z,310.57
2018-08-18T12:16:58.403Z,318.95
2018-08-18T12:19:28.544Z,301.20
2018-08-18T12:21:58.853Z,296.55
2018-08-18T12:24:29.438Z,302.85
2018-08-18T12:27:07.486Z,304.18
2018-08-18T12:29:38.257Z,317.00
2018-08-18T12:32:14.985Z,288.98
2018-08-18T12:34:45.490Z,331.25
2018-08-18T12:37:16.749Z,313.25
2018-08-18T12:39:47.013Z,326.62
2018-08-18T12:42:24.120Z,317.25
2018-08-18T12:48:02.704Z,290.20
2018-08-18T12:50:36.437Z,331.90
2018-08-18T12:53:07.103Z,302.77
2018-08-18T12:55:38.688Z,309.75
2018-08-18T12:58:10.802Z,280.30
2018-08-18T13:00:41.052Z,290.60
2018-08-18T13:03:13.893Z,307.60
2018-08-18T13:05:49.460Z,284.25
2018-08-18T13:08:22.004Z,320.75
2018-08-18T13:10:53.097Z,304.40
2018-08-18T13:13:23.837Z,313.70
2018-08-18T13:15:56.035Z,294.45
2018-08-18T13:18:31.308Z,297.88
2018-08-18T13:21:06.627Z,300.30
2018-08-18T13:23:37.902Z,291.82
2018-08-18T13:26:09.033Z,273.50
2018-08-18T13:28:41.423Z,290.68
